sensor_id;sensor_type;location;lat;lon;timestamp;temperature;humidity
40538;DHT22;27925;41.874;12.526;2023-04-12T00:02:22;14.00;78.30
40538;DHT22;27925;41.874;12.526;2023-04-12T00:04:48;13.90;78.30
40538;DHT22;27925;41.874;12.526;2023-04-12T00:07:23;13.90;78.80
40538;DHT22;27925;41.874;12.526;2023-04-12T00:09:49;13.80;78.60
40538;DHT22;27925;41.874;12.526;2023-04-12T00:12:17;13.80;78.70
40538;DHT22;27925;41.874;12.526;2023-04-12T00:14:44;13.80;79.00
40538;DHT22;27925;41.874;12.526;2023-04-12T00:17:10;13.80;79.20
40538;DHT22;27925;41.874;12.526;2023-04-12T00:19:37;13.80;79.40
40538;DHT22;27925;41.874;12.526;2023-04-12T00:22:07;13.70;79.40
40538;DHT22;27925;41.874;12.526;2023-04-12T00:24:33;13.60;79.40
40538;DHT22;27925;41.874;12.526;2023-04-12T00:26:59;13.60;79.20
40538;DHT22;27925;41.874;12.526;2023-04-12T00:29:26;13.60;79.80
40538;DHT22;27925;41.874;12.526;2023-04-12T00:31:52;13.60;79.60
40538;DHT22;27925;41.874;12.526;2023-04-12T00:34:18;13.60;79.50
40538;DHT22;27925;41.874;12.526;2023-04-12T00:36:44;13.60;79.80
40538;DHT22;27925;41.874;12.526;2023-04-12T00:39:09;13.50;79.70
40538;DHT22;27925;41.874;12.526;2023-04-12T00:41:36;13.50;79.70
40538;DHT22;27925;41.874;12.526;2023-04-12T00:44:02;13.50;79.70
40538;DHT22;27925;41.874;12.526;2023-04-12T00:46:29;13.50;79.80
40538;DHT22;27925;41.874;12.526;2023-04-12T00:48:56;13.40;79.80
40538;DHT22;27925;41.874;12.526;2023-04-12T00:51:22;13.40;79.70
40538;DHT22;27925;41.874;12.526;2023-04-12T00:53:52;13.40;79.90
40538;DHT22;27925;41.874;12.526;2023-04-12T00:56:18;13.40;79.90
40538;DHT22;27925;41.874;12.526;2023-04-12T00:58:44;13.40;79.90
40538;DHT22;27925;41.874;12.526;2023-04-12T01:01:10;13.30;79.90
40538;DHT22;27925;41.874;12.526;2023-04-12T01:03:36;13.30;79.90
40538;DHT22;27925;41.874;12.526;2023-04-12T01:11:33;13.20;80.30
40538;DHT22;27925;41.874;12.526;2023-04-12T01:14:10;13.20;80.40
40538;DHT22;27925;41.874;12.526;2023-04-12T01:27:41;13.10;80.60
40538;DHT22;27925;41.874;12.526;2023-04-12T01:30:12;13.00;80.20
40538;DHT22;27925;41.874;12.526;2023-04-12T01:32:38;13.00;80.10
40538;DHT22;27925;41.874;12.526;2023-04-12T01:35:06;13.00;80.20
40538;DHT22;27925;41.874;12.526;2023-04-12T01:37:34;13.00;80.40
40538;DHT22;27925;41.874;12.526;2023-04-12T01:40:00;13.00;80.10
40538;DHT22;27925;41.874;12.526;2023-04-12T01:42:26;13.10;80.30
40538;DHT22;27925;41.874;12.526;2023-04-12T01:44:52;13.00;80.20
40538;DHT22;27925;41.874;12.526;2023-04-12T01:47:18;13.00;80.50
40538;DHT22;27925;41.874;12.526;2023-04-12T01:50:15;13.00;80.20
40538;DHT22;27925;41.874;12.526;2023-04-12T01:52:48;13.00;81.00
40538;DHT22;27925;41.874;12.526;2023-04-12T01:55:14;13.00;80.40
40538;DHT22;27925;41.874;12.526;2023-04-12T01:57:43;13.00;80.60
40538;DHT22;27925;41.874;12.526;2023-04-12T02:00:10;13.00;80.00
40538;DHT22;27925;41.874;12.526;2023-04-12T02:02:37;13.00;80.40
40538;DHT22;27925;41.874;12.526;2023-04-12T02:05:05;13.00;80.10
40538;DHT22;27925;41.874;12.526;2023-04-12T02:07:33;12.90;80.00
40538;DHT22;27925;41.874;12.526;2023-04-12T02:09:59;12.80;80.10
40538;DHT22;27925;41.874;12.526;2023-04-12T02:12:25;12.80;80.30
40538;DHT22;27925;41.874;12.526;2023-04-12T02:14:51;12.70;80.00
40538;DHT22;27925;41.874;12.526;2023-04-12T02:17:17;12.70;80.20
40538;DHT22;27925;41.874;12.526;2023-04-12T02:19:43;12.70;80.20
40538;DHT22;27925;41.874;12.526;2023-04-12T02:22:09;12.70;80.20
40538;DHT22;27925;41.874;12.526;2023-04-12T02:24:34;12.70;80.00
40538;DHT22;27925;41.874;12.526;2023-04-12T02:27:00;12.60;80.10
40538;DHT22;27925;41.874;12.526;2023-04-12T02:29:26;12.70;80.10
40538;DHT22;27925;41.874;12.526;2023-04-12T02:31:52;12.60;80.30
40538;DHT22;27925;41.874;12.526;2023-04-12T02:34:17;12.50;80.40
40538;DHT22;27925;41.874;12.526;2023-04-12T02:36:47;12.50;80.60
40538;DHT22;27925;41.874;12.526;2023-04-12T02:39:13;12.40;80.70
40538;DHT22;27925;41.874;12.526;2023-04-12T02:41:43;12.40;80.60
40538;DHT22;27925;41.874;12.526;2023-04-12T02:44:09;12.30;80.60
40538;DHT22;27925;41.874;12.526;2023-04-12T02:46:35;12.30;80.80
40538;DHT22;27925;41.874;12.526;2023-04-12T02:49:01;12.30;80.40
40538;DHT22;27925;41.874;12.526;2023-04-12T02:51:26;12.30;80.20
40538;DHT22;27925;41.874;12.526;2023-04-12T02:53:52;12.30;80.70
40538;DHT22;27925;41.874;12.526;2023-04-12T02:56:18;12.30;80.60
40538;DHT22;27925;41.874;12.526;2023-04-12T02:58:46;12.20;80.80
40538;DHT22;27925;41.874;12.526;2023-04-12T03:01:12;12.20;81.00
40538;DHT22;27925;41.874;12.526;2023-04-12T03:03:39;12.20;81.00
40538;DHT22;27925;41.874;12.526;2023-04-12T03:06:05;12.20;81.20
40538;DHT22;27925;41.874;12.526;2023-04-12T03:08:33;12.10;81.00
40538;DHT22;27925;41.874;12.526;2023-04-12T03:10:59;12.00;81.30
40538;DHT22;27925;41.874;12.526;2023-04-12T03:13:24;12.00;81.70
40538;DHT22;27925;41.874;12.526;2023-04-12T03:15:56;12.00;81.80
40538;DHT22;27925;41.874;12.526;2023-04-12T03:18:22;12.00;81.70
40538;DHT22;27925;41.874;12.526;2023-04-12T03:20:48;11.90;81.90
40538;DHT22;27925;41.874;12.526;2023-04-12T03:23:14;11.90;81.80
40538;DHT22;27925;41.874;12.526;2023-04-12T03:25:40;11.90;81.80
40538;DHT22;27925;41.874;12.526;2023-04-12T03:28:07;11.90;81.60
40538;DHT22;27925;41.874;12.526;2023-04-12T03:30:33;11.90;81.70
40538;DHT22;27925;41.874;12.526;2023-04-12T03:32:58;11.90;81.50
40538;DHT22;27925;41.874;12.526;2023-04-12T03:35:24;11.90;81.50
40538;DHT22;27925;41.874;12.526;2023-04-12T03:37:50;11.90;81.60
40538;DHT22;27925;41.874;12.526;2023-04-12T03:40:16;11.90;81.50
40538;DHT22;27925;41.874;12.526;2023-04-12T03:42:41;12.00;81.40
40538;DHT22;27925;41.874;12.526;2023-04-12T03:45:07;12.00;81.40
40538;DHT22;27925;41.874;12.526;2023-04-12T03:47:33;12.00;81.20
40538;DHT22;27925;41.874;12.526;2023-04-12T03:50:04;11.90;81.20
40538;DHT22;27925;41.874;12.526;2023-04-12T03:52:32;11.90;81.30
40538;DHT22;27925;41.874;12.526;2023-04-12T03:54:57;11.90;81.50
40538;DHT22;27925;41.874;12.526;2023-04-12T03:57:23;11.90;81.50
40538;DHT22;27925;41.874;12.526;2023-04-12T03:59:49;11.90;81.20
40538;DHT22;27925;41.874;12.526;2023-04-12T04:02:14;11.90;81.20
40538;DHT22;27925;41.874;12.526;2023-04-12T04:04:40;11.90;81.40
40538;DHT22;27925;41.874;12.526;2023-04-12T04:07:06;11.90;81.20
40538;DHT22;27925;41.874;12.526;2023-04-12T04:09:32;11.90;81.00
40538;DHT22;27925;41.874;12.526;2023-04-12T04:11:58;11.90;81.10
40538;DHT22;27925;41.874;12.526;2023-04-12T04:14:26;11.90;81.10
40538;DHT22;27925;41.874;12.526;2023-04-12T04:16:52;11.90;81.10
40538;DHT22;27925;41.874;12.526;2023-04-12T04:19:18;11.90;81.40
40538;DHT22;27925;41.874;12.526;2023-04-12T04:21:44;11.90;81.00
40538;DHT22;27925;41.874;12.526;2023-04-12T04:24:09;11.90;81.20
40538;DHT22;27925;41.874;12.526;2023-04-12T04:26:36;11.80;81.20
40538;DHT22;27925;41.874;12.526;2023-04-12T04:29:03;11.90;81.40
40538;DHT22;27925;41.874;12.526;2023-04-12T04:31:30;11.90;80.80
40538;DHT22;27925;41.874;12.526;2023-04-12T04:34:04;11.90;80.50
40538;DHT22;27925;41.874;12.526;2023-04-12T04:36:33;12.00;80.40
40538;DHT22;27925;41.874;12.526;2023-04-12T04:38:59;12.00;80.20
40538;DHT22;27925;41.874;12.526;2023-04-12T04:41:25;12.00;79.80
40538;DHT22;27925;41.874;12.526;2023-04-12T04:43:51;12.00;79.60
40538;DHT22;27925;41.874;12.526;2023-04-12T04:46:19;12.00;79.30
40538;DHT22;27925;41.874;12.526;2023-04-12T04:48:49;12.00;79.10
40538;DHT22;27925;41.874;12.526;2023-04-12T04:51:16;12.00;79.30
40538;DHT22;27925;41.874;12.526;2023-04-12T04:53:42;12.00;78.80
40538;DHT22;27925;41.874;12.526;2023-04-12T04:56:09;12.00;79.00
40538;DHT22;27925;41.874;12.526;2023-04-12T04:58:35;11.90;78.80
40538;DHT22;27925;41.874;12.526;2023-04-12T05:01:01;11.90;79.10
40538;DHT22;27925;41.874;12.526;2023-04-12T05:03:28;12.00;79.20
40538;DHT22;27925;41.874;12.526;2023-04-12T05:05:54;12.00;79.30
40538;DHT22;27925;41.874;12.526;2023-04-12T05:08:21;12.00;79.10
40538;DHT22;27925;41.874;12.526;2023-04-12T05:10:50;12.00;79.30
40538;DHT22;27925;41.874;12.526;2023-04-12T05:13:17;12.00;79.10
40538;DHT22;27925;41.874;12.526;2023-04-12T05:15:43;12.10;79.20
40538;DHT22;27925;41.874;12.526;2023-04-12T05:18:08;12.10;78.80
40538;DHT22;27925;41.874;12.526;2023-04-12T05:20:36;12.20;79.00
40538;DHT22;27925;41.874;12.526;2023-04-12T05:23:03;12.30;78.40
40538;DHT22;27925;41.874;12.526;2023-04-12T05:25:28;12.30;78.10
40538;DHT22;27925;41.874;12.526;2023-04-12T05:27:54;12.40;77.90
40538;DHT22;27925;41.874;12.526;2023-04-12T05:30:20;12.40;77.90
40538;DHT22;27925;41.874;12.526;2023-04-12T05:32:46;12.40;77.90
40538;DHT22;27925;41.874;12.526;2023-04-12T05:35:12;12.40;77.60
40538;DHT22;27925;41.874;12.526;2023-04-12T05:37:37;12.40;77.40
40538;DHT22;27925;41.874;12.526;2023-04-12T05:40:03;12.40;77.40
40538;DHT22;27925;41.874;12.526;2023-04-12T05:42:31;12.50;77.50
40538;DHT22;27925;41.874;12.526;2023-04-12T05:44:57;12.50;77.20
40538;DHT22;27925;41.874;12.526;2023-04-12T05:47:23;12.40;77.00
40538;DHT22;27925;41.874;12.526;2023-04-12T05:49:48;12.40;76.80
40538;DHT22;27925;41.874;12.526;2023-04-12T05:52:14;12.60;76.80
40538;DHT22;27925;41.874;12.526;2023-04-12T05:54:40;12.80;76.30
40538;DHT22;27925;41.874;12.526;2023-04-12T05:57:06;12.90;75.90
40538;DHT22;27925;41.874;12.526;2023-04-12T05:59:31;13.10;75.70
40538;DHT22;27925;41.874;12.526;2023-04-12T06:01:57;13.20;74.90
40538;DHT22;27925;41.874;12.526;2023-04-12T06:04:24;13.20;74.50
40538;DHT22;27925;41.874;12.526;2023-04-12T06:06:50;13.20;74.70
40538;DHT22;27925;41.874;12.526;2023-04-12T06:09:16;13.30;74.80
40538;DHT22;27925;41.874;12.526;2023-04-12T06:11:42;13.30;74.50
40538;DHT22;27925;41.874;12.526;2023-04-12T06:14:07;13.40;74.40
40538;DHT22;27925;41.874;12.526;2023-04-12T06:16:33;13.60;74.20
40538;DHT22;27925;41.874;12.526;2023-04-12T06:18:59;13.70;73.60
40538;DHT22;27925;41.874;12.526;2023-04-12T06:21:25;13.90;73.70
40538;DHT22;27925;41.874;12.526;2023-04-12T06:23:51;14.10;73.40
40538;DHT22;27925;41.874;12.526;2023-04-12T06:26:17;14.40;72.50
40538;DHT22;27925;41.874;12.526;2023-04-12T06:28:42;14.60;71.80
40538;DHT22;27925;41.874;12.526;2023-04-12T06:31:09;14.80;71.30
40538;DHT22;27925;41.874;12.526;2023-04-12T06:33:34;15.00;70.80
40538;DHT22;27925;41.874;12.526;2023-04-12T06:36:01;15.20;70.00
40538;DHT22;27925;41.874;12.526;2023-04-12T06:38:27;15.20;69.10
40538;DHT22;27925;41.874;12.526;2023-04-12T06:40:53;15.40;69.00
40538;DHT22;27925;41.874;12.526;2023-04-12T06:43:18;15.50;68.90
40538;DHT22;27925;41.874;12.526;2023-04-12T06:45:45;15.60;67.80
40538;DHT22;27925;41.874;12.526;2023-04-12T06:48:10;15.80;68.00
40538;DHT22;27925;41.874;12.526;2023-04-12T06:50:36;16.00;67.30
40538;DHT22;27925;41.874;12.526;2023-04-12T06:53:02;16.20;67.20
40538;DHT22;27925;41.874;12.526;2023-04-12T06:55:28;16.30;66.30
40538;DHT22;27925;41.874;12.526;2023-04-12T06:57:54;16.40;65.90
40538;DHT22;27925;41.874;12.526;2023-04-12T07:00:20;16.50;65.90
40538;DHT22;27925;41.874;12.526;2023-04-12T07:02:46;16.60;66.00
40538;DHT22;27925;41.874;12.526;2023-04-12T07:05:12;16.80;65.30
40538;DHT22;27925;41.874;12.526;2023-04-12T07:07:38;16.90;65.10
40538;DHT22;27925;41.874;12.526;2023-04-12T07:10:04;17.00;65.20
40538;DHT22;27925;41.874;12.526;2023-04-12T07:12:30;17.20;65.20
40538;DHT22;27925;41.874;12.526;2023-04-12T07:14:55;17.40;65.00
40538;DHT22;27925;41.874;12.526;2023-04-12T07:17:22;17.40;64.60
40538;DHT22;27925;41.874;12.526;2023-04-12T07:19:48;17.60;64.70
40538;DHT22;27925;41.874;12.526;2023-04-12T07:22:14;17.70;64.30
40538;DHT22;27925;41.874;12.526;2023-04-12T07:24:40;17.80;64.10
40538;DHT22;27925;41.874;12.526;2023-04-12T07:27:05;18.00;64.00
40538;DHT22;27925;41.874;12.526;2023-04-12T07:29:31;18.10;63.60
40538;DHT22;27925;41.874;12.526;2023-04-12T07:31:58;18.20;63.60
40538;DHT22;27925;41.874;12.526;2023-04-12T07:34:24;18.20;63.10
40538;DHT22;27925;41.874;12.526;2023-04-12T07:36:50;18.40;62.90
40538;DHT22;27925;41.874;12.526;2023-04-12T07:39:16;18.50;62.60
40538;DHT22;27925;41.874;12.526;2023-04-12T07:41:42;18.50;62.00
40538;DHT22;27925;41.874;12.526;2023-04-12T07:44:10;18.60;61.50
40538;DHT22;27925;41.874;12.526;2023-04-12T07:46:37;18.60;60.80
40538;DHT22;27925;41.874;12.526;2023-04-12T07:49:03;18.60;60.60
40538;DHT22;27925;41.874;12.526;2023-04-12T07:51:29;18.70;60.30
40538;DHT22;27925;41.874;12.526;2023-04-12T07:53:55;18.70;60.10
40538;DHT22;27925;41.874;12.526;2023-04-12T07:56:21;18.60;59.70
40538;DHT22;27925;41.874;12.526;2023-04-12T07:58:46;18.60;59.70
40538;DHT22;27925;41.874;12.526;2023-04-12T08:01:14;18.50;59.10
40538;DHT22;27925;41.874;12.526;2023-04-12T08:03:40;18.50;59.10
40538;DHT22;27925;41.874;12.526;2023-04-12T08:06:06;18.50;59.40
40538;DHT22;27925;41.874;12.526;2023-04-12T08:08:32;18.50;59.30
40538;DHT22;27925;41.874;12.526;2023-04-12T08:10:58;18.40;59.20
40538;DHT22;27925;41.874;12.526;2023-04-12T08:13:24;18.30;58.90
40538;DHT22;27925;41.874;12.526;2023-04-12T08:15:49;18.30;59.20
40538;DHT22;27925;41.874;12.526;2023-04-12T08:18:15;18.20;59.20
40538;DHT22;27925;41.874;12.526;2023-04-12T08:20:41;18.20;59.30
40538;DHT22;27925;41.874;12.526;2023-04-12T08:23:09;18.20;59.50
40538;DHT22;27925;41.874;12.526;2023-04-12T08:25:35;18.10;59.20
40538;DHT22;27925;41.874;12.526;2023-04-12T08:28:01;18.10;59.50
40538;DHT22;27925;41.874;12.526;2023-04-12T08:30:28;18.10;59.70
40538;DHT22;27925;41.874;12.526;2023-04-12T08:32:54;18.10;59.80
40538;DHT22;27925;41.874;12.526;2023-04-12T08:35:20;18.10;59.70
40538;DHT22;27925;41.874;12.526;2023-04-12T08:37:47;18.10;59.30
40538;DHT22;27925;41.874;12.526;2023-04-12T08:40:13;18.10;59.60
40538;DHT22;27925;41.874;12.526;2023-04-12T08:42:39;18.10;59.70
40538;DHT22;27925;41.874;12.526;2023-04-12T08:45:07;18.10;59.50
40538;DHT22;27925;41.874;12.526;2023-04-12T08:47:35;18.10;59.70
40538;DHT22;27925;41.874;12.526;2023-04-12T08:50:01;18.10;59.40
40538;DHT22;27925;41.874;12.526;2023-04-12T08:52:28;18.10;59.30
40538;DHT22;27925;41.874;12.526;2023-04-12T08:54:57;18.20;59.50
40538;DHT22;27925;41.874;12.526;2023-04-12T08:57:22;18.20;59.60
40538;DHT22;27925;41.874;12.526;2023-04-12T08:59:49;18.20;59.80
40538;DHT22;27925;41.874;12.526;2023-04-12T09:02:16;18.20;59.50
40538;DHT22;27925;41.874;12.526;2023-04-12T09:04:51;18.20;59.60
40538;DHT22;27925;41.874;12.526;2023-04-12T09:07:21;18.20;59.50
40538;DHT22;27925;41.874;12.526;2023-04-12T09:09:48;18.30;59.90
40538;DHT22;27925;41.874;12.526;2023-04-12T09:12:15;18.30;59.20
40538;DHT22;27925;41.874;12.526;2023-04-12T09:14:42;18.30;59.20
40538;DHT22;27925;41.874;12.526;2023-04-12T09:17:23;18.30;59.70
40538;DHT22;27925;41.874;12.526;2023-04-12T09:19:50;18.40;59.30
40538;DHT22;27925;41.874;12.526;2023-04-12T09:22:15;18.40;59.10
40538;DHT22;27925;41.874;12.526;2023-04-12T09:24:48;18.40;59.00
40538;DHT22;27925;41.874;12.526;2023-04-12T09:27:16;18.40;59.20
40538;DHT22;27925;41.874;12.526;2023-04-12T09:29:45;18.50;59.10
40538;DHT22;27925;41.874;12.526;2023-04-12T09:32:24;18.50;58.80
40538;DHT22;27925;41.874;12.526;2023-04-12T09:34:56;18.60;58.40
40538;DHT22;27925;41.874;12.526;2023-04-12T09:37:23;18.60;58.10
40538;DHT22;27925;41.874;12.526;2023-04-12T09:39:59;18.60;58.10
40538;DHT22;27925;41.874;12.526;2023-04-12T09:42:26;18.60;57.70
40538;DHT22;27925;41.874;12.526;2023-04-12T09:44:53;18.70;57.70
40538;DHT22;27925;41.874;12.526;2023-04-12T09:47:19;18.70;57.70
40538;DHT22;27925;41.874;12.526;2023-04-12T09:49:45;18.80;57.40
40538;DHT22;27925;41.874;12.526;2023-04-12T09:52:12;18.80;57.50
40538;DHT22;27925;41.874;12.526;2023-04-12T09:54:47;18.90;57.20
40538;DHT22;27925;41.874;12.526;2023-04-12T09:57:16;19.00;58.80
40538;DHT22;27925;41.874;12.526;2023-04-12T09:59:44;19.10;57.60
40538;DHT22;27925;41.874;12.526;2023-04-12T10:02:23;19.20;57.20
40538;DHT22;27925;41.874;12.526;2023-04-12T10:04:51;19.30;57.30
40538;DHT22;27925;41.874;12.526;2023-04-12T10:07:17;19.30;57.60
40538;DHT22;27925;41.874;12.526;2023-04-12T10:09:44;19.40;57.60
40538;DHT22;27925;41.874;12.526;2023-04-12T10:12:09;19.50;57.80
40538;DHT22;27925;41.874;12.526;2023-04-12T10:14:36;19.60;57.30
40538;DHT22;27925;41.874;12.526;2023-04-12T10:17:03;19.70;57.20
40538;DHT22;27925;41.874;12.526;2023-04-12T10:19:31;19.80;57.30
40538;DHT22;27925;41.874;12.526;2023-04-12T10:21:58;19.90;57.30
40538;DHT22;27925;41.874;12.526;2023-04-12T10:24:25;20.00;57.10
40538;DHT22;27925;41.874;12.526;2023-04-12T10:26:53;20.10;56.90
40538;DHT22;27925;41.874;12.526;2023-04-12T10:29:27;20.10;56.80
40538;DHT22;27925;41.874;12.526;2023-04-12T10:31:57;20.20;56.60
40538;DHT22;27925;41.874;12.526;2023-04-12T10:34:28;20.20;56.40
40538;DHT22;27925;41.874;12.526;2023-04-12T10:36:56;20.30;56.40
40538;DHT22;27925;41.874;12.526;2023-04-12T10:39:42;20.30;56.50
40538;DHT22;27925;41.874;12.526;2023-04-12T10:42:29;20.40;56.50
40538;DHT22;27925;41.874;12.526;2023-04-12T10:47:56;20.50;56.10
40538;DHT22;27925;41.874;12.526;2023-04-12T10:50:30;20.50;55.90
40538;DHT22;27925;41.874;12.526;2023-04-12T10:55:47;20.60;55.50
40538;DHT22;27925;41.874;12.526;2023-04-12T11:01:30;20.70;55.10
40538;DHT22;27925;41.874;12.526;2023-04-12T11:07:06;20.90;55.70
40538;DHT22;27925;41.874;12.526;2023-04-12T11:09:43;20.90;54.70
40538;DHT22;27925;41.874;12.526;2023-04-12T11:14:35;21.00;55.00
40538;DHT22;27925;41.874;12.526;2023-04-12T11:22:07;21.30;55.00
40538;DHT22;27925;41.874;12.526;2023-04-12T11:24:37;21.40;54.80
40538;DHT22;27925;41.874;12.526;2023-04-12T11:27:03;21.40;54.60
40538;DHT22;27925;41.874;12.526;2023-04-12T11:29:29;21.50;54.70
40538;DHT22;27925;41.874;12.526;2023-04-12T11:31:57;21.50;54.90
40538;DHT22;27925;41.874;12.526;2023-04-12T11:34:23;21.60;55.80
40538;DHT22;27925;41.874;12.526;2023-04-12T11:36:53;21.60;56.20
40538;DHT22;27925;41.874;12.526;2023-04-12T11:39:20;21.70;56.50
40538;DHT22;27925;41.874;12.526;2023-04-12T11:41:47;21.80;57.10
40538;DHT22;27925;41.874;12.526;2023-04-12T11:44:14;21.90;57.00
40538;DHT22;27925;41.874;12.526;2023-04-12T11:46:44;22.00;56.80
40538;DHT22;27925;41.874;12.526;2023-04-12T11:49:13;22.10;57.10
40538;DHT22;27925;41.874;12.526;2023-04-12T11:51:40;22.20;57.30
40538;DHT22;27925;41.874;12.526;2023-04-12T11:54:06;22.20;57.30
40538;DHT22;27925;41.874;12.526;2023-04-12T11:56:32;22.10;57.40
40538;DHT22;27925;41.874;12.526;2023-04-12T11:58:58;22.00;57.30
40538;DHT22;27925;41.874;12.526;2023-04-12T12:01:23;22.00;57.70
40538;DHT22;27925;41.874;12.526;2023-04-12T12:03:50;22.00;57.90
40538;DHT22;27925;41.874;12.526;2023-04-12T12:06:16;22.00;58.00
40538;DHT22;27925;41.874;12.526;2023-04-12T12:08:42;22.00;57.90
40538;DHT22;27925;41.874;12.526;2023-04-12T12:11:08;22.10;57.90
40538;DHT22;27925;41.874;12.526;2023-04-12T12:16:17;22.10;57.90
40538;DHT22;27925;41.874;12.526;2023-04-12T12:18:44;22.00;57.90
40538;DHT22;27925;41.874;12.526;2023-04-12T12:21:12;22.00;58.30
40538;DHT22;27925;41.874;12.526;2023-04-12T12:23:40;22.10;58.70
40538;DHT22;27925;41.874;12.526;2023-04-12T12:26:06;22.10;58.80
40538;DHT22;27925;41.874;12.526;2023-04-12T12:28:38;22.20;58.70
40538;DHT22;27925;41.874;12.526;2023-04-12T12:31:17;22.30;58.90
40538;DHT22;27925;41.874;12.526;2023-04-12T12:33:44;22.30;58.80
40538;DHT22;27925;41.874;12.526;2023-04-12T12:36:10;22.30;58.70
40538;DHT22;27925;41.874;12.526;2023-04-12T12:38:36;22.30;58.60
40538;DHT22;27925;41.874;12.526;2023-04-12T12:41:22;22.30;58.70
40538;DHT22;27925;41.874;12.526;2023-04-12T12:43:50;22.20;59.10
40538;DHT22;27925;41.874;12.526;2023-04-12T12:46:16;22.30;59.00
40538;DHT22;27925;41.874;12.526;2023-04-12T12:48:43;22.30;59.20
40538;DHT22;27925;41.874;12.526;2023-04-12T12:51:09;22.30;59.80
40538;DHT22;27925;41.874;12.526;2023-04-12T12:53:37;22.30;59.40
40538;DHT22;27925;41.874;12.526;2023-04-12T12:56:03;22.30;59.20
40538;DHT22;27925;41.874;12.526;2023-04-12T12:58:29;22.40;59.30
40538;DHT22;27925;41.874;12.526;2023-04-12T13:00:56;22.50;59.20
40538;DHT22;27925;41.874;12.526;2023-04-12T13:03:21;22.60;58.70
40538;DHT22;27925;41.874;12.526;2023-04-12T13:05:47;22.60;58.80
40538;DHT22;27925;41.874;12.526;2023-04-12T13:08:14;22.60;58.80
40538;DHT22;27925;41.874;12.526;2023-04-12T13:10:40;22.60;58.80
40538;DHT22;27925;41.874;12.526;2023-04-12T13:13:05;22.60;58.40
40538;DHT22;27925;41.874;12.526;2023-04-12T13:15:31;22.60;58.70
40538;DHT22;27925;41.874;12.526;2023-04-12T13:17:57;22.50;58.70
40538;DHT22;27925;41.874;12.526;2023-04-12T13:20:27;22.50;59.60
40538;DHT22;27925;41.874;12.526;2023-04-12T13:22:56;22.50;59.50
40538;DHT22;27925;41.874;12.526;2023-04-12T13:25:21;22.50;59.50
40538;DHT22;27925;41.874;12.526;2023-04-12T13:27:48;22.50;59.20
40538;DHT22;27925;41.874;12.526;2023-04-12T13:30:14;22.50;59.20
40538;DHT22;27925;41.874;12.526;2023-04-12T13:32:40;22.50;59.10
40538;DHT22;27925;41.874;12.526;2023-04-12T13:35:05;22.50;59.10
40538;DHT22;27925;41.874;12.526;2023-04-12T13:37:32;22.60;59.10
40538;DHT22;27925;41.874;12.526;2023-04-12T13:39:58;22.60;58.80
40538;DHT22;27925;41.874;12.526;2023-04-12T13:42:24;22.70;59.90
40538;DHT22;27925;41.874;12.526;2023-04-12T13:44:49;22.70;59.90
40538;DHT22;27925;41.874;12.526;2023-04-12T13:47:16;22.70;59.30
40538;DHT22;27925;41.874;12.526;2023-04-12T13:49:42;22.80;59.50
40538;DHT22;27925;41.874;12.526;2023-04-12T13:52:08;22.80;59.60
40538;DHT22;27925;41.874;12.526;2023-04-12T13:54:34;22.80;59.60
40538;DHT22;27925;41.874;12.526;2023-04-12T13:57:00;22.70;59.30
40538;DHT22;27925;41.874;12.526;2023-04-12T13:59:26;22.70;59.70
40538;DHT22;27925;41.874;12.526;2023-04-12T14:01:52;22.70;59.60
40538;DHT22;27925;41.874;12.526;2023-04-12T14:04:18;22.60;59.70
40538;DHT22;27925;41.874;12.526;2023-04-12T14:06:44;22.70;59.60
40538;DHT22;27925;41.874;12.526;2023-04-12T14:09:29;22.70;59.60
40538;DHT22;27925;41.874;12.526;2023-04-12T14:11:57;22.70;59.60
40538;DHT22;27925;41.874;12.526;2023-04-12T14:14:24;22.80;59.30
40538;DHT22;27925;41.874;12.526;2023-04-12T14:16:51;22.80;59.60
40538;DHT22;27925;41.874;12.526;2023-04-12T14:19:18;22.70;59.50
40538;DHT22;27925;41.874;12.526;2023-04-12T14:21:45;22.50;59.50
40538;DHT22;27925;41.874;12.526;2023-04-12T14:24:11;22.50;60.50
40538;DHT22;27925;41.874;12.526;2023-04-12T14:26:38;22.40;60.40
40538;DHT22;27925;41.874;12.526;2023-04-12T14:29:07;22.40;60.60
40538;DHT22;27925;41.874;12.526;2023-04-12T14:31:34;22.40;61.00
40538;DHT22;27925;41.874;12.526;2023-04-12T14:34:04;22.40;60.80
40538;DHT22;27925;41.874;12.526;2023-04-12T14:36:30;22.40;59.70
40538;DHT22;27925;41.874;12.526;2023-04-12T14:38:56;22.50;60.80
40538;DHT22;27925;41.874;12.526;2023-04-12T14:41:22;22.50;60.10
40538;DHT22;27925;41.874;12.526;2023-04-12T14:43:48;22.50;60.30
40538;DHT22;27925;41.874;12.526;2023-04-12T14:46:16;22.40;60.20
40538;DHT22;27925;41.874;12.526;2023-04-12T14:48:42;22.40;61.60
40538;DHT22;27925;41.874;12.526;2023-04-12T14:51:08;22.40;60.40
40538;DHT22;27925;41.874;12.526;2023-04-12T14:53:34;22.40;61.30
40538;DHT22;27925;41.874;12.526;2023-04-12T14:56:00;22.30;61.10
40538;DHT22;27925;41.874;12.526;2023-04-12T14:58:27;22.30;61.10
40538;DHT22;27925;41.874;12.526;2023-04-12T15:00:55;22.20;61.30
40538;DHT22;27925;41.874;12.526;2023-04-12T15:03:21;22.20;61.80
40538;DHT22;27925;41.874;12.526;2023-04-12T15:05:46;22.20;61.80
40538;DHT22;27925;41.874;12.526;2023-04-12T15:08:12;22.20;62.10
40538;DHT22;27925;41.874;12.526;2023-04-12T15:10:38;22.20;61.50
40538;DHT22;27925;41.874;12.526;2023-04-12T15:13:04;22.20;62.10
40538;DHT22;27925;41.874;12.526;2023-04-12T15:15:29;22.20;62.10
40538;DHT22;27925;41.874;12.526;2023-04-12T15:17:55;22.20;61.60
40538;DHT22;27925;41.874;12.526;2023-04-12T15:20:21;22.10;61.60
40538;DHT22;27925;41.874;12.526;2023-04-12T15:22:46;22.10;61.60
40538;DHT22;27925;41.874;12.526;2023-04-12T15:25:12;22.10;61.50
40538;DHT22;27925;41.874;12.526;2023-04-12T15:27:38;22.10;61.50
40538;DHT22;27925;41.874;12.526;2023-04-12T15:30:05;22.00;61.90
40538;DHT22;27925;41.874;12.526;2023-04-12T15:32:32;22.00;61.70
40538;DHT22;27925;41.874;12.526;2023-04-12T15:35:02;22.00;61.80
40538;DHT22;27925;41.874;12.526;2023-04-12T15:37:31;22.00;62.50
40538;DHT22;27925;41.874;12.526;2023-04-12T15:40:06;21.90;62.20
40538;DHT22;27925;41.874;12.526;2023-04-12T15:42:48;21.80;62.20
40538;DHT22;27925;41.874;12.526;2023-04-12T15:45:14;21.70;62.80
40538;DHT22;27925;41.874;12.526;2023-04-12T15:47:39;21.80;63.00
40538;DHT22;27925;41.874;12.526;2023-04-12T15:50:06;21.80;62.80
40538;DHT22;27925;41.874;12.526;2023-04-12T15:52:32;21.80;62.30
40538;DHT22;27925;41.874;12.526;2023-04-12T15:54:58;21.80;61.80